Main page
METAR-TAF:

METAR-TAF

Airports :

Liège, Belgium

Liège Airport

latitude: 50-39N, longitude: 005-27E, elevation: 186 m

Current weather observation

The report was made 33 minutes ago, at 21:20 UTC
Wind 4 kt from the Northwest, varying between West and North/Northwest
Temperature 5°C
Humidity 75%
Pressure 1017 hPa
Visibility 10 km or more
Few clouds at a height of 3300 ft

METAR: EBLG 282120Z 31004KT 280V340 9999 FEW033 05/01 Q1017 NOSIG

Time: 23:53 (21:53 UTC)

Forecast

The report was made 4 hours and 33 minutes ago, at 17:20 UTC
Forecast valid from 28 at 18 UTC to 29 at 24 UTC
Wind 6 kt from the Northwest
Visibility 10 km or more
Few clouds at a height of 3500 ft
Probability 30% :
Temporary
from 29 at 02 UTC to 29 at 05 UTC
Visibility: 2000 m
mist

TAF: EBLG 281720Z 2818/2924 31006KT 9999 FEW035 PROB30 TEMPO 2902/2905 2000 BR

Weather observations and forecasts of more than 4000 airports (METAR and TAF reports).

The available stations are represented by yellow and red dots on the map.

Hover mouse over dot to see the name of the station.

Then click to see weather observations and forecasts.

To change the map : click on the green buttons with a black cross to zoom in, on the green button with a dash to zoom out, or on the green arrows for adjacent maps.


METAR-TAF: